sensor_id;sensor_type;location;lat;lon;timestamp;P1;durP1;ratioP1;P2;durP2;ratioP2
4529;SDS011;2277;51.626;7.516;2024-03-02T00:00:51;3.30;;;2.60;;
4529;SDS011;2277;51.626;7.516;2024-03-02T00:03:17;5.10;;;3.43;;
4529;SDS011;2277;51.626;7.516;2024-03-02T00:05:43;4.33;;;3.93;;
4529;SDS011;2277;51.626;7.516;2024-03-02T00:08:09;3.93;;;3.50;;
4529;SDS011;2277;51.626;7.516;2024-03-02T00:10:38;7.07;;;3.77;;
4529;SDS011;2277;51.626;7.516;2024-03-02T00:13:07;4.40;;;2.73;;
4529;SDS011;2277;51.626;7.516;2024-03-02T00:18:09;3.10;;;2.80;;
4529;SDS011;2277;51.626;7.516;2024-03-02T00:20:36;3.20;;;2.70;;
4529;SDS011;2277;51.626;7.516;2024-03-02T00:23:03;11.20;;;2.30;;
4529;SDS011;2277;51.626;7.516;2024-03-02T00:33:15;3.70;;;1.83;;
4529;SDS011;2277;51.626;7.516;2024-03-02T00:35:44;2.97;;;2.53;;
4529;SDS011;2277;51.626;7.516;2024-03-02T00:38:09;2.30;;;1.67;;
4529;SDS011;2277;51.626;7.516;2024-03-02T00:40:35;2.90;;;2.10;;
4529;SDS011;2277;51.626;7.516;2024-03-02T00:43:01;2.43;;;2.13;;
4529;SDS011;2277;51.626;7.516;2024-03-02T00:45:28;1.60;;;1.43;;
4529;SDS011;2277;51.626;7.516;2024-03-02T00:47:54;1.50;;;1.40;;
4529;SDS011;2277;51.626;7.516;2024-03-02T00:50:20;1.77;;;1.57;;
4529;SDS011;2277;51.626;7.516;2024-03-02T00:52:46;1.80;;;1.40;;
4529;SDS011;2277;51.626;7.516;2024-03-02T00:55:15;3.20;;;1.50;;
4529;SDS011;2277;51.626;7.516;2024-03-02T00:57:40;2.37;;;1.63;;
4529;SDS011;2277;51.626;7.516;2024-03-02T01:00:06;1.90;;;1.40;;
4529;SDS011;2277;51.626;7.516;2024-03-02T01:02:35;1.63;;;1.50;;
4529;SDS011;2277;51.626;7.516;2024-03-02T01:05:00;1.80;;;1.50;;
4529;SDS011;2277;51.626;7.516;2024-03-02T01:07:26;1.63;;;1.40;;
4529;SDS011;2277;51.626;7.516;2024-03-02T01:09:52;2.60;;;1.50;;
4529;SDS011;2277;51.626;7.516;2024-03-02T01:12:17;1.10;;;1.00;;
4529;SDS011;2277;51.626;7.516;2024-03-02T01:14:43;2.10;;;1.90;;
4529;SDS011;2277;51.626;7.516;2024-03-02T01:17:08;1.80;;;1.27;;
4529;SDS011;2277;51.626;7.516;2024-03-02T01:19:34;2.17;;;1.30;;
4529;SDS011;2277;51.626;7.516;2024-03-02T01:21:59;1.23;;;1.10;;
4529;SDS011;2277;51.626;7.516;2024-03-02T01:24:25;1.50;;;1.30;;
4529;SDS011;2277;51.626;7.516;2024-03-02T01:26:50;1.60;;;1.30;;
4529;SDS011;2277;51.626;7.516;2024-03-02T01:29:16;2.60;;;1.47;;
4529;SDS011;2277;51.626;7.516;2024-03-02T01:31:42;1.80;;;1.47;;
4529;SDS011;2277;51.626;7.516;2024-03-02T01:34:07;2.50;;;2.30;;
4529;SDS011;2277;51.626;7.516;2024-03-02T01:36:33;2.53;;;1.23;;
4529;SDS011;2277;51.626;7.516;2024-03-02T01:38:59;2.60;;;1.80;;
4529;SDS011;2277;51.626;7.516;2024-03-02T01:41:25;1.70;;;1.60;;
4529;SDS011;2277;51.626;7.516;2024-03-02T01:43:50;1.50;;;1.40;;
4529;SDS011;2277;51.626;7.516;2024-03-02T01:46:16;2.73;;;1.27;;
4529;SDS011;2277;51.626;7.516;2024-03-02T01:48:42;7.80;;;1.70;;
4529;SDS011;2277;51.626;7.516;2024-03-02T01:51:07;1.77;;;1.50;;
4529;SDS011;2277;51.626;7.516;2024-03-02T01:53:33;2.10;;;1.47;;
4529;SDS011;2277;51.626;7.516;2024-03-02T01:55:59;1.87;;;1.10;;
4529;SDS011;2277;51.626;7.516;2024-03-02T01:58:26;2.47;;;1.30;;
4529;SDS011;2277;51.626;7.516;2024-03-02T02:00:52;2.37;;;1.27;;
4529;SDS011;2277;51.626;7.516;2024-03-02T02:03:18;4.10;;;1.60;;
4529;SDS011;2277;51.626;7.516;2024-03-02T02:05:43;1.70;;;1.30;;
4529;SDS011;2277;51.626;7.516;2024-03-02T02:08:09;2.10;;;1.30;;
4529;SDS011;2277;51.626;7.516;2024-03-02T02:10:35;1.20;;;1.10;;
4529;SDS011;2277;51.626;7.516;2024-03-02T02:13:01;1.13;;;1.00;;
4529;SDS011;2277;51.626;7.516;2024-03-02T02:15:30;2.03;;;1.70;;
4529;SDS011;2277;51.626;7.516;2024-03-02T02:17:57;1.83;;;1.23;;
4529;SDS011;2277;51.626;7.516;2024-03-02T02:20:23;1.50;;;1.20;;
4529;SDS011;2277;51.626;7.516;2024-03-02T02:22:56;1.10;;;1.00;;
4529;SDS011;2277;51.626;7.516;2024-03-02T02:25:23;1.10;;;1.00;;
4529;SDS011;2277;51.626;7.516;2024-03-02T02:27:49;1.83;;;1.30;;
4529;SDS011;2277;51.626;7.516;2024-03-02T02:30:18;1.20;;;1.00;;
4529;SDS011;2277;51.626;7.516;2024-03-02T02:32:45;2.07;;;1.30;;
4529;SDS011;2277;51.626;7.516;2024-03-02T02:35:11;1.10;;;1.00;;
4529;SDS011;2277;51.626;7.516;2024-03-02T02:37:37;2.80;;;1.43;;
4529;SDS011;2277;51.626;7.516;2024-03-02T02:40:04;4.37;;;1.90;;
4529;SDS011;2277;51.626;7.516;2024-03-02T02:42:30;2.47;;;1.20;;
4529;SDS011;2277;51.626;7.516;2024-03-02T02:44:55;1.20;;;1.07;;
4529;SDS011;2277;51.626;7.516;2024-03-02T02:47:21;2.23;;;1.37;;
4529;SDS011;2277;51.626;7.516;2024-03-02T02:49:46;1.83;;;1.40;;
4529;SDS011;2277;51.626;7.516;2024-03-02T02:52:12;1.47;;;1.33;;
4529;SDS011;2277;51.626;7.516;2024-03-02T02:54:38;2.00;;;1.10;;
4529;SDS011;2277;51.626;7.516;2024-03-02T02:57:03;1.70;;;1.17;;
4529;SDS011;2277;51.626;7.516;2024-03-02T02:59:29;1.60;;;1.50;;
4529;SDS011;2277;51.626;7.516;2024-03-02T03:01:54;1.30;;;1.10;;
4529;SDS011;2277;51.626;7.516;2024-03-02T03:04:20;2.73;;;1.30;;
4529;SDS011;2277;51.626;7.516;2024-03-02T03:06:45;2.13;;;1.30;;
4529;SDS011;2277;51.626;7.516;2024-03-02T03:09:11;1.60;;;1.30;;
4529;SDS011;2277;51.626;7.516;2024-03-02T03:11:37;2.10;;;1.63;;
4529;SDS011;2277;51.626;7.516;2024-03-02T03:14:02;2.07;;;1.17;;
4529;SDS011;2277;51.626;7.516;2024-03-02T03:16:29;1.47;;;1.30;;
4529;SDS011;2277;51.626;7.516;2024-03-02T03:18:55;1.50;;;1.40;;
4529;SDS011;2277;51.626;7.516;2024-03-02T03:21:21;1.20;;;1.00;;
4529;SDS011;2277;51.626;7.516;2024-03-02T03:23:46;1.33;;;0.83;;
4529;SDS011;2277;51.626;7.516;2024-03-02T03:26:12;1.20;;;1.10;;
4529;SDS011;2277;51.626;7.516;2024-03-02T03:28:38;1.70;;;1.60;;
4529;SDS011;2277;51.626;7.516;2024-03-02T03:31:03;1.77;;;1.20;;
4529;SDS011;2277;51.626;7.516;2024-03-02T03:33:29;1.20;;;1.10;;
4529;SDS011;2277;51.626;7.516;2024-03-02T03:35:55;1.77;;;1.17;;
4529;SDS011;2277;51.626;7.516;2024-03-02T03:38:20;1.53;;;1.10;;
4529;SDS011;2277;51.626;7.516;2024-03-02T03:40:46;1.90;;;1.80;;
4529;SDS011;2277;51.626;7.516;2024-03-02T03:43:12;1.07;;;0.97;;
4529;SDS011;2277;51.626;7.516;2024-03-02T03:45:38;2.63;;;0.97;;
4529;SDS011;2277;51.626;7.516;2024-03-02T03:48:03;1.37;;;0.90;;
4529;SDS011;2277;51.626;7.516;2024-03-02T03:50:29;2.30;;;1.67;;
4529;SDS011;2277;51.626;7.516;2024-03-02T03:52:55;1.70;;;1.30;;
4529;SDS011;2277;51.626;7.516;2024-03-02T03:55:20;2.60;;;1.37;;
4529;SDS011;2277;51.626;7.516;2024-03-02T03:57:46;2.60;;;1.87;;
4529;SDS011;2277;51.626;7.516;2024-03-02T04:00:11;1.60;;;1.20;;
4529;SDS011;2277;51.626;7.516;2024-03-02T04:02:38;1.20;;;1.10;;
4529;SDS011;2277;51.626;7.516;2024-03-02T04:05:04;1.13;;;0.87;;
4529;SDS011;2277;51.626;7.516;2024-03-02T04:07:33;3.30;;;1.63;;
4529;SDS011;2277;51.626;7.516;2024-03-02T04:10:09;5.00;;;1.27;;
4529;SDS011;2277;51.626;7.516;2024-03-02T04:12:38;1.87;;;1.00;;
4529;SDS011;2277;51.626;7.516;2024-03-02T04:15:04;1.20;;;1.10;;
4529;SDS011;2277;51.626;7.516;2024-03-02T04:17:31;2.97;;;2.40;;
4529;SDS011;2277;51.626;7.516;2024-03-02T04:19:58;5.13;;;1.43;;
4529;SDS011;2277;51.626;7.516;2024-03-02T04:22:24;1.10;;;1.00;;
4529;SDS011;2277;51.626;7.516;2024-03-02T04:24:50;1.93;;;1.73;;
4529;SDS011;2277;51.626;7.516;2024-03-02T04:27:16;1.80;;;1.63;;
4529;SDS011;2277;51.626;7.516;2024-03-02T04:29:42;1.60;;;1.40;;
4529;SDS011;2277;51.626;7.516;2024-03-02T04:32:07;1.37;;;1.07;;
4529;SDS011;2277;51.626;7.516;2024-03-02T04:34:33;3.40;;;1.50;;
4529;SDS011;2277;51.626;7.516;2024-03-02T04:36:58;2.23;;;1.40;;
4529;SDS011;2277;51.626;7.516;2024-03-02T04:39:24;4.53;;;1.10;;
4529;SDS011;2277;51.626;7.516;2024-03-02T04:41:50;1.30;;;1.20;;
4529;SDS011;2277;51.626;7.516;2024-03-02T04:44:15;2.73;;;1.37;;
4529;SDS011;2277;51.626;7.516;2024-03-02T04:46:41;2.50;;;1.60;;
4529;SDS011;2277;51.626;7.516;2024-03-02T04:49:06;2.20;;;1.60;;
4529;SDS011;2277;51.626;7.516;2024-03-02T04:51:32;1.20;;;1.00;;
4529;SDS011;2277;51.626;7.516;2024-03-02T04:53:57;1.70;;;1.27;;
4529;SDS011;2277;51.626;7.516;2024-03-02T04:56:23;1.70;;;1.33;;
4529;SDS011;2277;51.626;7.516;2024-03-02T04:59:05;1.60;;;1.13;;
4529;SDS011;2277;51.626;7.516;2024-03-02T05:01:31;1.63;;;1.40;;
4529;SDS011;2277;51.626;7.516;2024-03-02T05:03:58;1.70;;;1.43;;
4529;SDS011;2277;51.626;7.516;2024-03-02T05:06:24;2.50;;;2.30;;
4529;SDS011;2277;51.626;7.516;2024-03-02T05:08:49;2.00;;;1.80;;
4529;SDS011;2277;51.626;7.516;2024-03-02T05:11:15;2.30;;;1.67;;
4529;SDS011;2277;51.626;7.516;2024-03-02T05:13:59;2.23;;;1.30;;
4529;SDS011;2277;51.626;7.516;2024-03-02T05:16:24;1.47;;;1.20;;
4529;SDS011;2277;51.626;7.516;2024-03-02T05:18:50;2.73;;;2.50;;
4529;SDS011;2277;51.626;7.516;2024-03-02T05:21:16;2.13;;;1.23;;
4529;SDS011;2277;51.626;7.516;2024-03-02T05:23:41;2.43;;;1.90;;
4529;SDS011;2277;51.626;7.516;2024-03-02T05:26:07;2.00;;;1.60;;
4529;SDS011;2277;51.626;7.516;2024-03-02T05:28:33;1.50;;;1.23;;
4529;SDS011;2277;51.626;7.516;2024-03-02T05:30:58;1.90;;;1.67;;
4529;SDS011;2277;51.626;7.516;2024-03-02T05:33:24;2.33;;;1.63;;
4529;SDS011;2277;51.626;7.516;2024-03-02T05:35:49;4.40;;;2.40;;
4529;SDS011;2277;51.626;7.516;2024-03-02T05:38:15;5.30;;;2.00;;
4529;SDS011;2277;51.626;7.516;2024-03-02T05:40:40;1.60;;;1.50;;
4529;SDS011;2277;51.626;7.516;2024-03-02T05:43:06;2.87;;;1.50;;
4529;SDS011;2277;51.626;7.516;2024-03-02T05:45:32;2.33;;;2.07;;
4529;SDS011;2277;51.626;7.516;2024-03-02T05:47:57;4.80;;;2.03;;
4529;SDS011;2277;51.626;7.516;2024-03-02T05:50:23;2.53;;;1.80;;
4529;SDS011;2277;51.626;7.516;2024-03-02T05:52:48;2.70;;;2.50;;
4529;SDS011;2277;51.626;7.516;2024-03-02T05:55:14;3.23;;;1.93;;
4529;SDS011;2277;51.626;7.516;2024-03-02T05:57:40;2.13;;;1.87;;
4529;SDS011;2277;51.626;7.516;2024-03-02T06:00:08;3.60;;;1.77;;
4529;SDS011;2277;51.626;7.516;2024-03-02T06:02:34;3.57;;;2.30;;
4529;SDS011;2277;51.626;7.516;2024-03-02T06:05:02;7.93;;;2.20;;
4529;SDS011;2277;51.626;7.516;2024-03-02T06:07:29;4.37;;;2.10;;
4529;SDS011;2277;51.626;7.516;2024-03-02T06:09:55;3.90;;;2.07;;
4529;SDS011;2277;51.626;7.516;2024-03-02T06:12:20;8.70;;;2.07;;
4529;SDS011;2277;51.626;7.516;2024-03-02T06:14:46;2.70;;;2.50;;
4529;SDS011;2277;51.626;7.516;2024-03-02T06:17:11;2.57;;;1.40;;
4529;SDS011;2277;51.626;7.516;2024-03-02T06:19:37;5.67;;;2.40;;
4529;SDS011;2277;51.626;7.516;2024-03-02T06:22:02;12.40;;;7.33;;
4529;SDS011;2277;51.626;7.516;2024-03-02T06:24:28;14.50;;;5.63;;
4529;SDS011;2277;51.626;7.516;2024-03-02T06:26:54;11.57;;;5.20;;
4529;SDS011;2277;51.626;7.516;2024-03-02T06:29:20;7.00;;;4.00;;
4529;SDS011;2277;51.626;7.516;2024-03-02T06:31:46;4.97;;;3.10;;
4529;SDS011;2277;51.626;7.516;2024-03-02T06:34:12;2.13;;;1.50;;
4529;SDS011;2277;51.626;7.516;2024-03-02T06:36:38;2.80;;;2.30;;
4529;SDS011;2277;51.626;7.516;2024-03-02T06:39:05;2.40;;;2.00;;
4529;SDS011;2277;51.626;7.516;2024-03-02T06:41:30;3.27;;;2.57;;
4529;SDS011;2277;51.626;7.516;2024-03-02T06:43:56;2.70;;;1.60;;
4529;SDS011;2277;51.626;7.516;2024-03-02T06:46:27;2.03;;;1.60;;
4529;SDS011;2277;51.626;7.516;2024-03-02T06:48:53;2.43;;;1.77;;
4529;SDS011;2277;51.626;7.516;2024-03-02T06:51:18;4.37;;;2.33;;
4529;SDS011;2277;51.626;7.516;2024-03-02T06:53:44;6.17;;;3.17;;
4529;SDS011;2277;51.626;7.516;2024-03-02T06:56:09;5.70;;;5.03;;
4529;SDS011;2277;51.626;7.516;2024-03-02T06:58:35;4.20;;;3.30;;
4529;SDS011;2277;51.626;7.516;2024-03-02T07:01:00;5.33;;;3.47;;
4529;SDS011;2277;51.626;7.516;2024-03-02T07:03:26;4.80;;;3.30;;
4529;SDS011;2277;51.626;7.516;2024-03-02T07:05:51;6.30;;;2.80;;
4529;SDS011;2277;51.626;7.516;2024-03-02T07:08:17;3.40;;;2.70;;
4529;SDS011;2277;51.626;7.516;2024-03-02T07:10:42;4.10;;;3.00;;
4529;SDS011;2277;51.626;7.516;2024-03-02T07:13:08;6.70;;;3.60;;
4529;SDS011;2277;51.626;7.516;2024-03-02T07:15:33;4.93;;;3.50;;
4529;SDS011;2277;51.626;7.516;2024-03-02T07:18:15;5.73;;;3.37;;
4529;SDS011;2277;51.626;7.516;2024-03-02T07:20:40;6.50;;;4.37;;
4529;SDS011;2277;51.626;7.516;2024-03-02T07:23:06;9.50;;;5.97;;
4529;SDS011;2277;51.626;7.516;2024-03-02T07:25:31;6.70;;;4.60;;
4529;SDS011;2277;51.626;7.516;2024-03-02T07:27:57;6.17;;;3.93;;
4529;SDS011;2277;51.626;7.516;2024-03-02T07:30:23;4.33;;;3.57;;
4529;SDS011;2277;51.626;7.516;2024-03-02T07:32:50;7.00;;;2.80;;
4529;SDS011;2277;51.626;7.516;2024-03-02T07:35:15;5.20;;;3.40;;
4529;SDS011;2277;51.626;7.516;2024-03-02T07:37:41;6.00;;;3.97;;
4529;SDS011;2277;51.626;7.516;2024-03-02T07:40:07;5.77;;;2.97;;
4529;SDS011;2277;51.626;7.516;2024-03-02T07:42:38;6.27;;;3.20;;
4529;SDS011;2277;51.626;7.516;2024-03-02T07:45:04;3.20;;;2.70;;
4529;SDS011;2277;51.626;7.516;2024-03-02T07:47:31;2.57;;;2.17;;
4529;SDS011;2277;51.626;7.516;2024-03-02T07:50:00;2.87;;;2.03;;
4529;SDS011;2277;51.626;7.516;2024-03-02T07:52:25;3.40;;;3.10;;
4529;SDS011;2277;51.626;7.516;2024-03-02T07:54:51;4.53;;;3.13;;
4529;SDS011;2277;51.626;7.516;2024-03-02T07:57:16;1.93;;;1.80;;
4529;SDS011;2277;51.626;7.516;2024-03-02T07:59:42;3.73;;;2.50;;
4529;SDS011;2277;51.626;7.516;2024-03-02T08:02:08;4.03;;;2.50;;
4529;SDS011;2277;51.626;7.516;2024-03-02T08:04:33;4.97;;;3.70;;
4529;SDS011;2277;51.626;7.516;2024-03-02T08:06:59;13.10;;;3.23;;
4529;SDS011;2277;51.626;7.516;2024-03-02T08:09:25;7.10;;;2.70;;
4529;SDS011;2277;51.626;7.516;2024-03-02T08:11:50;3.80;;;2.30;;
4529;SDS011;2277;51.626;7.516;2024-03-02T08:14:16;2.60;;;2.10;;
4529;SDS011;2277;51.626;7.516;2024-03-02T08:16:42;3.40;;;2.30;;
4529;SDS011;2277;51.626;7.516;2024-03-02T08:19:07;2.60;;;2.40;;
4529;SDS011;2277;51.626;7.516;2024-03-02T08:21:34;8.77;;;3.00;;
4529;SDS011;2277;51.626;7.516;2024-03-02T08:24:00;3.87;;;2.60;;
4529;SDS011;2277;51.626;7.516;2024-03-02T08:26:27;4.10;;;3.60;;
4529;SDS011;2277;51.626;7.516;2024-03-02T08:28:56;3.43;;;3.13;;
4529;SDS011;2277;51.626;7.516;2024-03-02T08:31:23;5.43;;;2.30;;
4529;SDS011;2277;51.626;7.516;2024-03-02T08:33:48;3.63;;;2.37;;
4529;SDS011;2277;51.626;7.516;2024-03-02T08:36:14;5.77;;;2.67;;
4529;SDS011;2277;51.626;7.516;2024-03-02T08:38:40;4.20;;;2.57;;
4529;SDS011;2277;51.626;7.516;2024-03-02T08:41:10;4.70;;;2.30;;
4529;SDS011;2277;51.626;7.516;2024-03-02T08:43:38;3.50;;;2.57;;
4529;SDS011;2277;51.626;7.516;2024-03-02T08:46:04;5.20;;;2.70;;
4529;SDS011;2277;51.626;7.516;2024-03-02T08:48:30;4.33;;;2.40;;
4529;SDS011;2277;51.626;7.516;2024-03-02T08:50:56;3.80;;;2.70;;
4529;SDS011;2277;51.626;7.516;2024-03-02T08:53:21;4.30;;;2.80;;
4529;SDS011;2277;51.626;7.516;2024-03-02T08:55:47;2.33;;;2.13;;
4529;SDS011;2277;51.626;7.516;2024-03-02T08:58:12;2.67;;;2.23;;
4529;SDS011;2277;51.626;7.516;2024-03-02T09:00:38;4.13;;;2.60;;
4529;SDS011;2277;51.626;7.516;2024-03-02T09:03:04;5.93;;;2.97;;
4529;SDS011;2277;51.626;7.516;2024-03-02T09:05:29;3.60;;;2.00;;
4529;SDS011;2277;51.626;7.516;2024-03-02T09:07:55;3.33;;;2.23;;
4529;SDS011;2277;51.626;7.516;2024-03-02T09:10:21;2.67;;;2.10;;
4529;SDS011;2277;51.626;7.516;2024-03-02T09:12:46;2.27;;;1.87;;
4529;SDS011;2277;51.626;7.516;2024-03-02T09:15:12;2.30;;;2.10;;
4529;SDS011;2277;51.626;7.516;2024-03-02T09:17:37;2.80;;;2.40;;
4529;SDS011;2277;51.626;7.516;2024-03-02T09:20:04;3.90;;;2.70;;
4529;SDS011;2277;51.626;7.516;2024-03-02T09:22:30;4.03;;;2.40;;
4529;SDS011;2277;51.626;7.516;2024-03-02T09:24:57;4.67;;;2.50;;
4529;SDS011;2277;51.626;7.516;2024-03-02T09:27:23;2.63;;;2.03;;
4529;SDS011;2277;51.626;7.516;2024-03-02T09:29:48;3.63;;;2.70;;
4529;SDS011;2277;51.626;7.516;2024-03-02T09:32:14;4.10;;;3.20;;
4529;SDS011;2277;51.626;7.516;2024-03-02T09:34:40;4.40;;;1.90;;
4529;SDS011;2277;51.626;7.516;2024-03-02T09:37:06;2.00;;;1.47;;
4529;SDS011;2277;51.626;7.516;2024-03-02T09:39:32;2.17;;;1.70;;
4529;SDS011;2277;51.626;7.516;2024-03-02T09:42:01;1.87;;;1.60;;
4529;SDS011;2277;51.626;7.516;2024-03-02T09:44:29;4.13;;;2.03;;
4529;SDS011;2277;51.626;7.516;2024-03-02T09:46:54;4.10;;;1.53;;
4529;SDS011;2277;51.626;7.516;2024-03-02T09:49:20;3.53;;;1.47;;
4529;SDS011;2277;51.626;7.516;2024-03-02T09:51:47;2.20;;;1.20;;
4529;SDS011;2277;51.626;7.516;2024-03-02T09:54:16;1.80;;;1.47;;
4529;SDS011;2277;51.626;7.516;2024-03-02T09:56:42;2.37;;;1.23;;
4529;SDS011;2277;51.626;7.516;2024-03-02T09:59:09;1.83;;;1.20;;
4529;SDS011;2277;51.626;7.516;2024-03-02T10:01:34;2.57;;;1.23;;
4529;SDS011;2277;51.626;7.516;2024-03-02T10:04:00;2.73;;;1.30;;
4529;SDS011;2277;51.626;7.516;2024-03-02T10:06:27;3.00;;;1.53;;
4529;SDS011;2277;51.626;7.516;2024-03-02T10:08:54;1.50;;;1.33;;
4529;SDS011;2277;51.626;7.516;2024-03-02T10:11:29;2.30;;;1.63;;
4529;SDS011;2277;51.626;7.516;2024-03-02T10:16:37;2.60;;;2.17;;
4529;SDS011;2277;51.626;7.516;2024-03-02T10:19:24;4.53;;;2.00;;
4529;SDS011;2277;51.626;7.516;2024-03-02T10:21:53;1.97;;;1.17;;
4529;SDS011;2277;51.626;7.516;2024-03-02T10:24:21;2.20;;;1.43;;
4529;SDS011;2277;51.626;7.516;2024-03-02T10:26:47;2.60;;;1.20;;
4529;SDS011;2277;51.626;7.516;2024-03-02T10:29:13;2.80;;;1.23;;
4529;SDS011;2277;51.626;7.516;2024-03-02T10:31:40;1.83;;;1.13;;
4529;SDS011;2277;51.626;7.516;2024-03-02T10:34:10;4.60;;;1.43;;
4529;SDS011;2277;51.626;7.516;2024-03-02T10:36:37;1.50;;;1.00;;
4529;SDS011;2277;51.626;7.516;2024-03-02T10:39:07;1.97;;;1.03;;
4529;SDS011;2277;51.626;7.516;2024-03-02T10:41:33;1.37;;;1.00;;
4529;SDS011;2277;51.626;7.516;2024-03-02T10:44:03;1.20;;;1.10;;
4529;SDS011;2277;51.626;7.516;2024-03-02T10:46:31;1.37;;;0.90;;
4529;SDS011;2277;51.626;7.516;2024-03-02T10:48:58;1.87;;;1.10;;
4529;SDS011;2277;51.626;7.516;2024-03-02T10:51:25;2.53;;;1.30;;
4529;SDS011;2277;51.626;7.516;2024-03-02T10:53:52;1.20;;;0.80;;
4529;SDS011;2277;51.626;7.516;2024-03-02T10:56:24;2.40;;;1.10;;
4529;SDS011;2277;51.626;7.516;2024-03-02T11:01:43;1.10;;;1.00;;
4529;SDS011;2277;51.626;7.516;2024-03-02T11:04:12;2.53;;;1.10;;
4529;SDS011;2277;51.626;7.516;2024-03-02T11:06:40;1.30;;;0.90;;
4529;SDS011;2277;51.626;7.516;2024-03-02T11:09:15;2.00;;;1.20;;
4529;SDS011;2277;51.626;7.516;2024-03-02T11:11:44;2.17;;;1.00;;
4529;SDS011;2277;51.626;7.516;2024-03-02T11:14:14;1.10;;;0.90;;
4529;SDS011;2277;51.626;7.516;2024-03-02T11:16:42;1.63;;;1.10;;
4529;SDS011;2277;51.626;7.516;2024-03-02T11:19:12;9.10;;;1.00;;
4529;SDS011;2277;51.626;7.516;2024-03-02T11:21:39;1.70;;;1.20;;
4529;SDS011;2277;51.626;7.516;2024-03-02T11:27:03;1.20;;;1.00;;
4529;SDS011;2277;51.626;7.516;2024-03-02T11:32:06;5.47;;;2.03;;
4529;SDS011;2277;51.626;7.516;2024-03-02T11:34:32;2.20;;;0.90;;
4529;SDS011;2277;51.626;7.516;2024-03-02T11:37:00;2.30;;;1.20;;
4529;SDS011;2277;51.626;7.516;2024-03-02T11:39:30;4.67;;;1.00;;
4529;SDS011;2277;51.626;7.516;2024-03-02T11:41:56;1.83;;;1.30;;
4529;SDS011;2277;51.626;7.516;2024-03-02T11:44:22;2.07;;;1.00;;
4529;SDS011;2277;51.626;7.516;2024-03-02T11:47:00;2.17;;;1.30;;
4529;SDS011;2277;51.626;7.516;2024-03-02T11:52:11;1.20;;;1.07;;
4529;SDS011;2277;51.626;7.516;2024-03-02T11:54:39;1.40;;;1.20;;
4529;SDS011;2277;51.626;7.516;2024-03-02T11:57:11;1.50;;;1.00;;
4529;SDS011;2277;51.626;7.516;2024-03-02T11:59:40;1.40;;;0.93;;
4529;SDS011;2277;51.626;7.516;2024-03-02T12:02:06;1.37;;;0.80;;
4529;SDS011;2277;51.626;7.516;2024-03-02T12:04:37;1.47;;;0.90;;
4529;SDS011;2277;51.626;7.516;2024-03-02T12:07:03;2.47;;;1.07;;
4529;SDS011;2277;51.626;7.516;2024-03-02T12:09:29;3.07;;;1.00;;
4529;SDS011;2277;51.626;7.516;2024-03-02T12:12:07;1.47;;;1.10;;
4529;SDS011;2277;51.626;7.516;2024-03-02T12:14:35;1.53;;;1.00;;
4529;SDS011;2277;51.626;7.516;2024-03-02T12:17:02;1.53;;;0.97;;
4529;SDS011;2277;51.626;7.516;2024-03-02T12:19:29;2.33;;;0.97;;
4529;SDS011;2277;51.626;7.516;2024-03-02T12:21:58;1.33;;;0.90;;
4529;SDS011;2277;51.626;7.516;2024-03-02T12:24:28;1.50;;;0.90;;
4529;SDS011;2277;51.626;7.516;2024-03-02T12:26:54;3.23;;;1.33;;
4529;SDS011;2277;51.626;7.516;2024-03-02T12:29:20;1.17;;;0.77;;
4529;SDS011;2277;51.626;7.516;2024-03-02T12:31:50;1.20;;;0.77;;
4529;SDS011;2277;51.626;7.516;2024-03-02T12:34:17;7.33;;;0.90;;
4529;SDS011;2277;51.626;7.516;2024-03-02T12:36:44;2.50;;;1.70;;
4529;SDS011;2277;51.626;7.516;2024-03-02T12:39:14;1.20;;;1.00;;
4529;SDS011;2277;51.626;7.516;2024-03-02T12:41:41;2.50;;;0.87;;
4529;SDS011;2277;51.626;7.516;2024-03-02T12:44:07;1.07;;;0.70;;
4529;SDS011;2277;51.626;7.516;2024-03-02T12:46:33;1.00;;;0.80;;
4529;SDS011;2277;51.626;7.516;2024-03-02T12:49:05;1.40;;;1.00;;
4529;SDS011;2277;51.626;7.516;2024-03-02T12:51:36;1.97;;;1.10;;
4529;SDS011;2277;51.626;7.516;2024-03-02T12:54:02;1.73;;;1.40;;
4529;SDS011;2277;51.626;7.516;2024-03-02T12:56:30;1.60;;;1.00;;
4529;SDS011;2277;51.626;7.516;2024-03-02T12:58:56;2.07;;;1.00;;
4529;SDS011;2277;51.626;7.516;2024-03-02T13:01:21;1.63;;;1.53;;
4529;SDS011;2277;51.626;7.516;2024-03-02T13:03:50;1.60;;;1.07;;
4529;SDS011;2277;51.626;7.516;2024-03-02T13:06:16;1.60;;;1.00;;
4529;SDS011;2277;51.626;7.516;2024-03-02T13:08:43;1.27;;;0.90;;
4529;SDS011;2277;51.626;7.516;2024-03-02T13:11:09;2.93;;;0.83;;
4529;SDS011;2277;51.626;7.516;2024-03-02T13:13:35;1.50;;;0.80;;
4529;SDS011;2277;51.626;7.516;2024-03-02T13:16:01;1.20;;;0.80;;
4529;SDS011;2277;51.626;7.516;2024-03-02T13:18:28;1.13;;;0.87;;
4529;SDS011;2277;51.626;7.516;2024-03-02T13:20:54;2.50;;;0.90;;
4529;SDS011;2277;51.626;7.516;2024-03-02T13:23:21;1.10;;;0.80;;
4529;SDS011;2277;51.626;7.516;2024-03-02T13:25:46;3.43;;;0.90;;
4529;SDS011;2277;51.626;7.516;2024-03-02T13:28:12;1.20;;;1.07;;
4529;SDS011;2277;51.626;7.516;2024-03-02T13:30:38;1.10;;;0.93;;
4529;SDS011;2277;51.626;7.516;2024-03-02T13:33:04;1.67;;;1.10;;
4529;SDS011;2277;51.626;7.516;2024-03-02T13:35:29;1.10;;;0.80;;
4529;SDS011;2277;51.626;7.516;2024-03-02T13:37:55;1.63;;;1.20;;
4529;SDS011;2277;51.626;7.516;2024-03-02T13:40:20;1.10;;;0.90;;
4529;SDS011;2277;51.626;7.516;2024-03-02T13:42:46;1.27;;;1.00;;
4529;SDS011;2277;51.626;7.516;2024-03-02T13:45:12;2.10;;;1.40;;
4529;SDS011;2277;51.626;7.516;2024-03-02T13:47:38;2.07;;;0.97;;
4529;SDS011;2277;51.626;7.516;2024-03-02T13:50:04;3.50;;;0.97;;
4529;SDS011;2277;51.626;7.516;2024-03-02T13:52:31;1.10;;;1.00;;
4529;SDS011;2277;51.626;7.516;2024-03-02T13:54:56;2.20;;;1.00;;
4529;SDS011;2277;51.626;7.516;2024-03-02T13:57:22;1.30;;;0.80;;
4529;SDS011;2277;51.626;7.516;2024-03-02T13:59:48;1.60;;;1.10;;
4529;SDS011;2277;51.626;7.516;2024-03-02T14:02:14;1.20;;;0.70;;
4529;SDS011;2277;51.626;7.516;2024-03-02T14:04:40;2.60;;;0.80;;
4529;SDS011;2277;51.626;7.516;2024-03-02T14:07:06;1.70;;;1.50;;
4529;SDS011;2277;51.626;7.516;2024-03-02T14:09:32;1.47;;;1.23;;
4529;SDS011;2277;51.626;7.516;2024-03-02T14:11:58;2.20;;;1.27;;
4529;SDS011;2277;51.626;7.516;2024-03-02T14:14:25;1.10;;;1.00;;
4529;SDS011;2277;51.626;7.516;2024-03-02T14:16:52;1.07;;;0.90;;
4529;SDS011;2277;51.626;7.516;2024-03-02T14:19:18;2.40;;;1.00;;
4529;SDS011;2277;51.626;7.516;2024-03-02T14:21:45;1.83;;;1.30;;
4529;SDS011;2277;51.626;7.516;2024-03-02T14:24:10;1.20;;;1.00;;
4529;SDS011;2277;51.626;7.516;2024-03-02T14:26:36;1.87;;;0.90;;
4529;SDS011;2277;51.626;7.516;2024-03-02T14:29:02;2.83;;;1.10;;
4529;SDS011;2277;51.626;7.516;2024-03-02T14:31:28;1.20;;;0.70;;
4529;SDS011;2277;51.626;7.516;2024-03-02T14:33:54;1.00;;;0.80;;
4529;SDS011;2277;51.626;7.516;2024-03-02T14:36:20;1.30;;;1.00;;
4529;SDS011;2277;51.626;7.516;2024-03-02T14:38:45;1.60;;;1.23;;
4529;SDS011;2277;51.626;7.516;2024-03-02T14:41:11;1.40;;;1.00;;
4529;SDS011;2277;51.626;7.516;2024-03-02T14:43:37;3.10;;;1.20;;
4529;SDS011;2277;51.626;7.516;2024-03-02T14:46:03;1.40;;;0.93;;
4529;SDS011;2277;51.626;7.516;2024-03-02T14:48:30;1.20;;;1.03;;
4529;SDS011;2277;51.626;7.516;2024-03-02T14:50:56;1.27;;;0.90;;
4529;SDS011;2277;51.626;7.516;2024-03-02T14:53:22;2.17;;;0.93;;
4529;SDS011;2277;51.626;7.516;2024-03-02T14:55:48;1.77;;;1.40;;
4529;SDS011;2277;51.626;7.516;2024-03-02T14:58:14;1.10;;;0.80;;
4529;SDS011;2277;51.626;7.516;2024-03-02T15:00:41;1.47;;;1.07;;
4529;SDS011;2277;51.626;7.516;2024-03-02T15:03:06;1.20;;;1.00;;
4529;SDS011;2277;51.626;7.516;2024-03-02T15:05:33;2.07;;;1.30;;
4529;SDS011;2277;51.626;7.516;2024-03-02T15:07:59;9.53;;;1.67;;
4529;SDS011;2277;51.626;7.516;2024-03-02T15:10:27;1.67;;;1.40;;
4529;SDS011;2277;51.626;7.516;2024-03-02T15:12:53;1.53;;;1.30;;
4529;SDS011;2277;51.626;7.516;2024-03-02T15:15:19;2.00;;;1.20;;
4529;SDS011;2277;51.626;7.516;2024-03-02T15:17:44;2.13;;;1.30;;
4529;SDS011;2277;51.626;7.516;2024-03-02T15:20:10;2.07;;;1.20;;
4529;SDS011;2277;51.626;7.516;2024-03-02T15:22:35;1.40;;;0.93;;
4529;SDS011;2277;51.626;7.516;2024-03-02T15:25:01;1.50;;;1.00;;
4529;SDS011;2277;51.626;7.516;2024-03-02T15:27:27;1.90;;;1.53;;
4529;SDS011;2277;51.626;7.516;2024-03-02T15:29:53;1.20;;;0.87;;
4529;SDS011;2277;51.626;7.516;2024-03-02T15:32:20;2.73;;;1.37;;
4529;SDS011;2277;51.626;7.516;2024-03-02T15:34:45;1.67;;;1.20;;